Portada
METAR-TAF:

METAR-TAF

Aeroports :

Comodoro Rivadavia, Argentina

latitud: 45-47S, longitud: 067-30W, altitud: 58 m

Observació

L'informe es va fer fa 1 hora i 13 minuts, a les 01:00 UTC
Vent 17 kt del Oest/Nord-Oest amb ràfegues de 30 kt, variant entre Oest i Nord/Nord-Oest
Temperatura 26°C
Humitat 39%
Pressió 997 hPa
Visibilitat: 5000 m
torb alta de pols

METAR: SAVC 280100Z 29017G30KT 260V330 5000 BLDU 26/11 Q0997

Hora: 23:13 (02:13 UTC)

Pronòstic

L'informe es va fer fa 3 hores i 13 minuts, a les 23:00 UTC
Pronòstic vàlid del 28 a les 00 UTC al 28 a les 24 UTC
Vent 20 kt del Oest/Nord-Oest amb ràfegues de 35 kt
Visibilitat: 5000 m
Pols estès
Evolucionant progressivament
l' 28 a les 09 UTC al 28 a les 11 UTC
Vent 15 kt del Sud
Visibilitat 10 km o més
Núvols disperses a una alçada de 3000 ft
Cel ennuvolat a una alçada de 6000 ft
plugim

TAF: SAVC 272300Z 2800/2824 29020G35KT 5000 DU NSC TX25/2800Z TN15/2810Z BECMG 2809/2811 19015KT 9999 -DZ SCT030 BKN060

Observacions i pronòstics meteorològics de més de 4000 aeroports (METAR i TAF).

Les estacions disponibles són els punts grocs i vermells al mapa.

Posi el ratolí al punt desitjat per veure el nom de l'estació.

Feu clic per veure les observacions i els pronòstics meteorològics.

Per canviar el mapa: feu clic els botons verds amb una creu de color negre per apropar; al botó verd amb un guió per allunyar la imatge; o en les fletxes verdes per a mapes adjacents.


METAR-TAF: